sensor_id;sensor_type;location;lat;lon;timestamp;P1;durP1;ratioP1;P2;durP2;ratioP2
1759;SDS011;877;46.266;20.062;2022-10-16T00:00:38;12.80;;;7.67;;
1759;SDS011;877;46.266;20.062;2022-10-16T00:03:14;9.13;;;7.10;;
1759;SDS011;877;46.266;20.062;2022-10-16T00:05:58;12.33;;;7.90;;
1759;SDS011;877;46.266;20.062;2022-10-16T00:17:18;11.27;;;7.20;;
1759;SDS011;877;46.266;20.062;2022-10-16T00:22:40;11.23;;;6.70;;
1759;SDS011;877;46.266;20.062;2022-10-16T00:25:11;13.13;;;7.60;;
1759;SDS011;877;46.266;20.062;2022-10-16T00:33:32;11.70;;;7.33;;
1759;SDS011;877;46.266;20.062;2022-10-16T00:36:13;13.13;;;7.90;;
1759;SDS011;877;46.266;20.062;2022-10-16T00:38:39;17.70;;;6.53;;
1759;SDS011;877;46.266;20.062;2022-10-16T00:43:55;10.30;;;7.00;;
1759;SDS011;877;46.266;20.062;2022-10-16T00:52:13;11.43;;;7.00;;
1759;SDS011;877;46.266;20.062;2022-10-16T00:57:45;12.97;;;6.90;;
1759;SDS011;877;46.266;20.062;2022-10-16T01:05:45;9.63;;;7.03;;
1759;SDS011;877;46.266;20.062;2022-10-16T01:08:39;13.33;;;7.60;;
1759;SDS011;877;46.266;20.062;2022-10-16T01:14:25;12.53;;;7.20;;
1759;SDS011;877;46.266;20.062;2022-10-16T01:17:04;10.23;;;7.40;;
1759;SDS011;877;46.266;20.062;2022-10-16T01:22:43;13.87;;;7.00;;
1759;SDS011;877;46.266;20.062;2022-10-16T01:28:19;10.27;;;7.13;;
1759;SDS011;877;46.266;20.062;2022-10-16T01:39:23;15.50;;;8.57;;
1759;SDS011;877;46.266;20.062;2022-10-16T01:44:53;13.27;;;7.80;;
1759;SDS011;877;46.266;20.062;2022-10-16T01:47:22;12.63;;;7.80;;
1759;SDS011;877;46.266;20.062;2022-10-16T01:52:45;11.37;;;7.73;;
1759;SDS011;877;46.266;20.062;2022-10-16T01:57:51;9.80;;;7.37;;
1759;SDS011;877;46.266;20.062;2022-10-16T02:00:19;12.37;;;8.40;;
1759;SDS011;877;46.266;20.062;2022-10-16T02:03:03;10.20;;;7.50;;
1759;SDS011;877;46.266;20.062;2022-10-16T02:11:19;11.90;;;8.40;;
1759;SDS011;877;46.266;20.062;2022-10-16T02:16:40;12.60;;;8.07;;
1759;SDS011;877;46.266;20.062;2022-10-16T02:19:12;11.57;;;8.10;;
1759;SDS011;877;46.266;20.062;2022-10-16T02:30:03;15.80;;;8.27;;
1759;SDS011;877;46.266;20.062;2022-10-16T02:32:45;14.63;;;8.30;;
1759;SDS011;877;46.266;20.062;2022-10-16T02:35:24;13.93;;;9.30;;
1759;SDS011;877;46.266;20.062;2022-10-16T02:40:55;15.30;;;8.80;;
1759;SDS011;877;46.266;20.062;2022-10-16T02:43:26;14.43;;;8.50;;
1759;SDS011;877;46.266;20.062;2022-10-16T02:46:00;12.73;;;9.33;;
1759;SDS011;877;46.266;20.062;2022-10-16T02:48:36;15.80;;;8.00;;
1759;SDS011;877;46.266;20.062;2022-10-16T02:59:26;14.00;;;8.80;;
1759;SDS011;877;46.266;20.062;2022-10-16T03:01:57;12.70;;;8.27;;
1759;SDS011;877;46.266;20.062;2022-10-16T03:04:24;14.90;;;9.90;;
1759;SDS011;877;46.266;20.062;2022-10-16T03:06:51;11.97;;;9.03;;
1759;SDS011;877;46.266;20.062;2022-10-16T03:09:25;12.20;;;8.73;;
1759;SDS011;877;46.266;20.062;2022-10-16T03:11:53;13.17;;;9.40;;
1759;SDS011;877;46.266;20.062;2022-10-16T03:14:20;12.47;;;8.80;;
1759;SDS011;877;46.266;20.062;2022-10-16T03:19:33;14.80;;;9.50;;
1759;SDS011;877;46.266;20.062;2022-10-16T03:22:00;14.43;;;10.27;;
1759;SDS011;877;46.266;20.062;2022-10-16T03:24:26;14.13;;;10.00;;
1759;SDS011;877;46.266;20.062;2022-10-16T03:26:54;12.77;;;9.20;;
1759;SDS011;877;46.266;20.062;2022-10-16T03:29:21;16.90;;;10.50;;
1759;SDS011;877;46.266;20.062;2022-10-16T03:31:48;14.27;;;10.47;;
1759;SDS011;877;46.266;20.062;2022-10-16T03:34:20;15.70;;;11.03;;
1759;SDS011;877;46.266;20.062;2022-10-16T03:36:51;13.70;;;8.97;;
1759;SDS011;877;46.266;20.062;2022-10-16T03:39:23;19.00;;;9.67;;
1759;SDS011;877;46.266;20.062;2022-10-16T03:41:51;16.43;;;10.63;;
1759;SDS011;877;46.266;20.062;2022-10-16T03:44:18;14.50;;;10.30;;
1759;SDS011;877;46.266;20.062;2022-10-16T03:46:45;14.40;;;10.53;;
1759;SDS011;877;46.266;20.062;2022-10-16T03:49:18;17.13;;;10.30;;
1759;SDS011;877;46.266;20.062;2022-10-16T03:51:55;16.13;;;10.57;;
1759;SDS011;877;46.266;20.062;2022-10-16T03:56:51;17.63;;;10.87;;
1759;SDS011;877;46.266;20.062;2022-10-16T03:59:17;15.83;;;9.67;;
1759;SDS011;877;46.266;20.062;2022-10-16T04:01:44;17.33;;;10.60;;
1759;SDS011;877;46.266;20.062;2022-10-16T04:04:11;17.27;;;10.40;;
1759;SDS011;877;46.266;20.062;2022-10-16T04:06:38;16.03;;;11.77;;
1759;SDS011;877;46.266;20.062;2022-10-16T04:09:12;13.80;;;9.63;;
1759;SDS011;877;46.266;20.062;2022-10-16T04:11:38;15.60;;;9.60;;
1759;SDS011;877;46.266;20.062;2022-10-16T04:14:17;14.73;;;10.20;;
1759;SDS011;877;46.266;20.062;2022-10-16T04:16:43;15.83;;;10.10;;
1759;SDS011;877;46.266;20.062;2022-10-16T04:19:10;19.00;;;10.67;;
1759;SDS011;877;46.266;20.062;2022-10-16T04:21:37;16.50;;;11.00;;
1759;SDS011;877;46.266;20.062;2022-10-16T04:24:05;13.27;;;10.30;;
1759;SDS011;877;46.266;20.062;2022-10-16T04:26:31;13.13;;;10.23;;
1759;SDS011;877;46.266;20.062;2022-10-16T04:29:11;14.23;;;11.23;;
1759;SDS011;877;46.266;20.062;2022-10-16T04:31:37;17.23;;;11.00;;
1759;SDS011;877;46.266;20.062;2022-10-16T04:34:04;19.50;;;10.87;;
1759;SDS011;877;46.266;20.062;2022-10-16T04:36:30;14.97;;;10.27;;
1759;SDS011;877;46.266;20.062;2022-10-16T04:38:56;14.13;;;10.10;;
1759;SDS011;877;46.266;20.062;2022-10-16T04:41:23;13.03;;;9.30;;
1759;SDS011;877;46.266;20.062;2022-10-16T04:43:51;13.93;;;9.17;;
1759;SDS011;877;46.266;20.062;2022-10-16T04:46:18;16.30;;;10.83;;
1759;SDS011;877;46.266;20.062;2022-10-16T04:48:44;14.30;;;10.03;;
1759;SDS011;877;46.266;20.062;2022-10-16T04:51:11;15.67;;;10.10;;
1759;SDS011;877;46.266;20.062;2022-10-16T04:53:44;16.07;;;10.80;;
1759;SDS011;877;46.266;20.062;2022-10-16T04:56:16;14.00;;;9.73;;
1759;SDS011;877;46.266;20.062;2022-10-16T05:01:12;16.07;;;10.20;;
1759;SDS011;877;46.266;20.062;2022-10-16T05:03:38;12.87;;;9.90;;
1759;SDS011;877;46.266;20.062;2022-10-16T05:06:11;12.27;;;8.93;;
1759;SDS011;877;46.266;20.062;2022-10-16T05:08:51;11.63;;;9.57;;
1759;SDS011;877;46.266;20.062;2022-10-16T05:11:21;14.50;;;9.40;;
1759;SDS011;877;46.266;20.062;2022-10-16T05:13:48;14.10;;;9.47;;
1759;SDS011;877;46.266;20.062;2022-10-16T05:16:15;12.30;;;9.33;;
1759;SDS011;877;46.266;20.062;2022-10-16T05:18:57;12.40;;;9.07;;
1759;SDS011;877;46.266;20.062;2022-10-16T05:21:24;14.03;;;9.83;;
1759;SDS011;877;46.266;20.062;2022-10-16T05:23:50;13.47;;;9.20;;
1759;SDS011;877;46.266;20.062;2022-10-16T05:26:17;12.93;;;8.90;;
1759;SDS011;877;46.266;20.062;2022-10-16T05:28:50;11.20;;;9.03;;
1759;SDS011;877;46.266;20.062;2022-10-16T05:31:23;17.37;;;9.27;;
1759;SDS011;877;46.266;20.062;2022-10-16T05:33:50;13.63;;;9.77;;
1759;SDS011;877;46.266;20.062;2022-10-16T05:36:21;11.40;;;8.67;;
1759;SDS011;877;46.266;20.062;2022-10-16T05:38:50;11.63;;;7.73;;
1759;SDS011;877;46.266;20.062;2022-10-16T05:41:17;10.87;;;8.93;;
1759;SDS011;877;46.266;20.062;2022-10-16T05:43:49;15.20;;;9.00;;
1759;SDS011;877;46.266;20.062;2022-10-16T05:46:18;12.83;;;9.67;;
1759;SDS011;877;46.266;20.062;2022-10-16T05:48:45;12.23;;;9.57;;
1759;SDS011;877;46.266;20.062;2022-10-16T05:53:45;12.80;;;8.70;;
1759;SDS011;877;46.266;20.062;2022-10-16T05:56:13;12.73;;;9.30;;
1759;SDS011;877;46.266;20.062;2022-10-16T06:01:50;14.40;;;9.23;;
1759;SDS011;877;46.266;20.062;2022-10-16T06:12:21;12.23;;;8.27;;
1759;SDS011;877;46.266;20.062;2022-10-16T06:17:25;9.77;;;8.20;;
1759;SDS011;877;46.266;20.062;2022-10-16T06:19:52;14.07;;;8.80;;
1759;SDS011;877;46.266;20.062;2022-10-16T06:22:18;9.50;;;7.70;;
1759;SDS011;877;46.266;20.062;2022-10-16T06:30:01;15.73;;;9.07;;
1759;SDS011;877;46.266;20.062;2022-10-16T06:32:30;12.37;;;8.30;;
1759;SDS011;877;46.266;20.062;2022-10-16T06:34:58;10.17;;;7.63;;
1759;SDS011;877;46.266;20.062;2022-10-16T06:46:06;8.30;;;7.20;;
1759;SDS011;877;46.266;20.062;2022-10-16T06:48:46;13.60;;;8.93;;
1759;SDS011;877;46.266;20.062;2022-10-16T06:51:19;12.37;;;7.90;;
1759;SDS011;877;46.266;20.062;2022-10-16T06:53:47;11.70;;;7.67;;
1759;SDS011;877;46.266;20.062;2022-10-16T06:59:19;14.40;;;7.90;;
1759;SDS011;877;46.266;20.062;2022-10-16T07:01:53;12.90;;;8.20;;
1759;SDS011;877;46.266;20.062;2022-10-16T07:04:27;12.93;;;7.87;;
1759;SDS011;877;46.266;20.062;2022-10-16T07:06:59;14.50;;;7.70;;
1759;SDS011;877;46.266;20.062;2022-10-16T07:12:02;12.60;;;7.87;;
1759;SDS011;877;46.266;20.062;2022-10-16T07:17:11;13.37;;;8.07;;
1759;SDS011;877;46.266;20.062;2022-10-16T07:19:47;10.83;;;8.17;;
1759;SDS011;877;46.266;20.062;2022-10-16T07:22:13;14.13;;;7.23;;
1759;SDS011;877;46.266;20.062;2022-10-16T07:33:21;12.10;;;8.03;;
1759;SDS011;877;46.266;20.062;2022-10-16T07:35:52;12.30;;;8.17;;
1759;SDS011;877;46.266;20.062;2022-10-16T07:38:27;10.30;;;6.70;;
1759;SDS011;877;46.266;20.062;2022-10-16T07:40:58;14.83;;;7.73;;
1759;SDS011;877;46.266;20.062;2022-10-16T07:43:25;9.50;;;6.63;;
1759;SDS011;877;46.266;20.062;2022-10-16T07:48:22;12.90;;;7.57;;
1759;SDS011;877;46.266;20.062;2022-10-16T07:50:50;11.70;;;7.80;;
1759;SDS011;877;46.266;20.062;2022-10-16T07:55:48;9.47;;;7.20;;
1759;SDS011;877;46.266;20.062;2022-10-16T07:58:16;18.73;;;9.80;;
1759;SDS011;877;46.266;20.062;2022-10-16T08:00:43;9.97;;;6.37;;
1759;SDS011;877;46.266;20.062;2022-10-16T08:03:11;12.00;;;7.93;;
1759;SDS011;877;46.266;20.062;2022-10-16T08:05:38;15.40;;;7.47;;
1759;SDS011;877;46.266;20.062;2022-10-16T08:08:14;10.00;;;6.67;;
1759;SDS011;877;46.266;20.062;2022-10-16T08:10:42;12.37;;;6.80;;
1759;SDS011;877;46.266;20.062;2022-10-16T08:16:00;11.17;;;6.57;;
1759;SDS011;877;46.266;20.062;2022-10-16T08:18:28;15.90;;;8.40;;
1759;SDS011;877;46.266;20.062;2022-10-16T08:20:57;13.23;;;6.90;;
1759;SDS011;877;46.266;20.062;2022-10-16T08:23:25;12.10;;;6.73;;
1759;SDS011;877;46.266;20.062;2022-10-16T08:25:53;10.80;;;6.40;;
1759;SDS011;877;46.266;20.062;2022-10-16T08:30:53;11.93;;;7.00;;
1759;SDS011;877;46.266;20.062;2022-10-16T08:33:23;13.17;;;7.60;;
1759;SDS011;877;46.266;20.062;2022-10-16T08:38:49;13.00;;;6.87;;
1759;SDS011;877;46.266;20.062;2022-10-16T08:49:47;9.90;;;6.20;;
1759;SDS011;877;46.266;20.062;2022-10-16T08:57:52;9.43;;;6.20;;
1759;SDS011;877;46.266;20.062;2022-10-16T09:00:18;8.47;;;6.77;;
1759;SDS011;877;46.266;20.062;2022-10-16T09:02:53;10.80;;;6.20;;
1759;SDS011;877;46.266;20.062;2022-10-16T09:05:28;11.47;;;6.03;;
1759;SDS011;877;46.266;20.062;2022-10-16T09:08:01;11.77;;;6.50;;
1759;SDS011;877;46.266;20.062;2022-10-16T09:13:24;9.77;;;6.33;;
1759;SDS011;877;46.266;20.062;2022-10-16T09:21:24;11.07;;;7.60;;
1759;SDS011;877;46.266;20.062;2022-10-16T09:23:57;9.87;;;6.30;;
1759;SDS011;877;46.266;20.062;2022-10-16T09:26:33;9.37;;;6.53;;
1759;SDS011;877;46.266;20.062;2022-10-16T09:29:05;10.97;;;7.10;;
1759;SDS011;877;46.266;20.062;2022-10-16T09:31:39;10.37;;;7.00;;
1759;SDS011;877;46.266;20.062;2022-10-16T09:34:09;9.03;;;6.40;;
1759;SDS011;877;46.266;20.062;2022-10-16T09:36:42;9.77;;;6.40;;
1759;SDS011;877;46.266;20.062;2022-10-16T09:39:10;10.23;;;6.30;;
1759;SDS011;877;46.266;20.062;2022-10-16T09:41:39;10.43;;;5.70;;
1759;SDS011;877;46.266;20.062;2022-10-16T09:49:54;8.93;;;5.93;;
1759;SDS011;877;46.266;20.062;2022-10-16T09:55:17;7.97;;;5.60;;
1759;SDS011;877;46.266;20.062;2022-10-16T09:57:58;7.50;;;5.47;;
1759;SDS011;877;46.266;20.062;2022-10-16T10:00:28;8.10;;;6.00;;
1759;SDS011;877;46.266;20.062;2022-10-16T10:05:32;10.07;;;6.00;;
1759;SDS011;877;46.266;20.062;2022-10-16T10:13:22;6.53;;;5.20;;
1759;SDS011;877;46.266;20.062;2022-10-16T10:15:51;7.77;;;5.57;;
1759;SDS011;877;46.266;20.062;2022-10-16T10:18:25;7.93;;;5.53;;
1759;SDS011;877;46.266;20.062;2022-10-16T10:21:02;8.30;;;5.70;;
1759;SDS011;877;46.266;20.062;2022-10-16T10:23:30;6.40;;;5.30;;
1759;SDS011;877;46.266;20.062;2022-10-16T10:26:06;7.53;;;5.40;;
1759;SDS011;877;46.266;20.062;2022-10-16T10:39:42;8.83;;;5.33;;
1759;SDS011;877;46.266;20.062;2022-10-16T10:50:37;10.17;;;6.20;;
1759;SDS011;877;46.266;20.062;2022-10-16T10:53:09;8.37;;;5.40;;
1759;SDS011;877;46.266;20.062;2022-10-16T11:01:12;6.97;;;5.17;;
1759;SDS011;877;46.266;20.062;2022-10-16T11:12:18;6.30;;;5.20;;
1759;SDS011;877;46.266;20.062;2022-10-16T11:14:46;8.90;;;5.70;;
1759;SDS011;877;46.266;20.062;2022-10-16T11:22:42;9.37;;;5.90;;
1759;SDS011;877;46.266;20.062;2022-10-16T11:28:13;7.50;;;5.67;;
1759;SDS011;877;46.266;20.062;2022-10-16T11:30:49;8.70;;;4.93;;
1759;SDS011;877;46.266;20.062;2022-10-16T11:46:27;9.73;;;5.50;;
1759;SDS011;877;46.266;20.062;2022-10-16T11:49:12;6.97;;;5.57;;
1759;SDS011;877;46.266;20.062;2022-10-16T11:57:02;9.03;;;4.93;;
1759;SDS011;877;46.266;20.062;2022-10-16T12:05:46;6.80;;;4.80;;
1759;SDS011;877;46.266;20.062;2022-10-16T12:10:27;8.37;;;5.27;;
1759;SDS011;877;46.266;20.062;2022-10-16T12:12:55;9.17;;;5.10;;
1759;SDS011;877;46.266;20.062;2022-10-16T12:15:24;7.07;;;5.00;;
1759;SDS011;877;46.266;20.062;2022-10-16T12:17:51;6.37;;;4.90;;
1759;SDS011;877;46.266;20.062;2022-10-16T12:22:56;8.10;;;5.40;;
1759;SDS011;877;46.266;20.062;2022-10-16T12:25:35;12.00;;;4.40;;
1759;SDS011;877;46.266;20.062;2022-10-16T12:28:49;7.83;;;5.00;;
1759;SDS011;877;46.266;20.062;2022-10-16T12:30:55;6.30;;;4.20;;
1759;SDS011;877;46.266;20.062;2022-10-16T12:33:23;9.47;;;5.47;;
1759;SDS011;877;46.266;20.062;2022-10-16T12:35:49;6.37;;;4.43;;
1759;SDS011;877;46.266;20.062;2022-10-16T12:38:27;7.57;;;4.33;;
1759;SDS011;877;46.266;20.062;2022-10-16T12:41:09;6.43;;;4.30;;
1759;SDS011;877;46.266;20.062;2022-10-16T12:43:46;8.30;;;4.90;;
1759;SDS011;877;46.266;20.062;2022-10-16T12:48:46;11.37;;;4.67;;
1759;SDS011;877;46.266;20.062;2022-10-16T12:51:33;7.57;;;4.00;;
1759;SDS011;877;46.266;20.062;2022-10-16T13:15:58;5.50;;;3.70;;
1759;SDS011;877;46.266;20.062;2022-10-16T13:27:25;6.03;;;4.13;;
1759;SDS011;877;46.266;20.062;2022-10-16T13:30:02;8.00;;;3.87;;
1759;SDS011;877;46.266;20.062;2022-10-16T13:40:55;6.83;;;4.60;;
1759;SDS011;877;46.266;20.062;2022-10-16T13:43:23;5.67;;;3.83;;
1759;SDS011;877;46.266;20.062;2022-10-16T13:45:58;6.23;;;4.93;;
1759;SDS011;877;46.266;20.062;2022-10-16T13:48:31;9.13;;;5.70;;
1759;SDS011;877;46.266;20.062;2022-10-16T13:51:06;6.77;;;4.30;;
1759;SDS011;877;46.266;20.062;2022-10-16T13:53:46;6.93;;;4.20;;
1759;SDS011;877;46.266;20.062;2022-10-16T13:56:20;6.87;;;4.67;;
1759;SDS011;877;46.266;20.062;2022-10-16T14:01:44;7.07;;;4.33;;
1759;SDS011;877;46.266;20.062;2022-10-16T14:04:12;5.90;;;4.00;;
1759;SDS011;877;46.266;20.062;2022-10-16T14:06:43;6.30;;;3.83;;
1759;SDS011;877;46.266;20.062;2022-10-16T14:09:29;6.37;;;4.40;;
1759;SDS011;877;46.266;20.062;2022-10-16T14:14:51;7.23;;;3.90;;
1759;SDS011;877;46.266;20.062;2022-10-16T14:17:29;5.53;;;4.30;;
1759;SDS011;877;46.266;20.062;2022-10-16T14:20:04;6.60;;;4.63;;
1759;SDS011;877;46.266;20.062;2022-10-16T14:22:34;7.63;;;4.10;;
1759;SDS011;877;46.266;20.062;2022-10-16T14:27:44;8.57;;;3.83;;
1759;SDS011;877;46.266;20.062;2022-10-16T14:32:57;9.77;;;3.90;;
1759;SDS011;877;46.266;20.062;2022-10-16T14:35:33;9.10;;;5.40;;
1759;SDS011;877;46.266;20.062;2022-10-16T14:46:15;7.47;;;5.73;;
1759;SDS011;877;46.266;20.062;2022-10-16T14:51:45;7.67;;;4.63;;
1759;SDS011;877;46.266;20.062;2022-10-16T14:54:23;9.73;;;5.60;;
1759;SDS011;877;46.266;20.062;2022-10-16T14:56:58;9.70;;;5.60;;
1759;SDS011;877;46.266;20.062;2022-10-16T15:01:57;10.90;;;5.90;;
1759;SDS011;877;46.266;20.062;2022-10-16T15:07:12;11.43;;;5.97;;
1759;SDS011;877;46.266;20.062;2022-10-16T15:09:45;9.80;;;5.97;;
1759;SDS011;877;46.266;20.062;2022-10-16T15:12:12;8.97;;;5.30;;
1759;SDS011;877;46.266;20.062;2022-10-16T15:17:17;11.60;;;5.80;;
1759;SDS011;877;46.266;20.062;2022-10-16T15:19:43;9.30;;;5.63;;
1759;SDS011;877;46.266;20.062;2022-10-16T15:22:11;10.47;;;5.47;;
1759;SDS011;877;46.266;20.062;2022-10-16T15:24:38;17.73;;;9.17;;
1759;SDS011;877;46.266;20.062;2022-10-16T15:27:05;27.47;;;17.30;;
1759;SDS011;877;46.266;20.062;2022-10-16T15:29:31;35.70;;;25.73;;
1759;SDS011;877;46.266;20.062;2022-10-16T15:32:03;38.07;;;24.30;;
1759;SDS011;877;46.266;20.062;2022-10-16T15:34:30;20.37;;;13.97;;
1759;SDS011;877;46.266;20.062;2022-10-16T15:36:58;15.27;;;9.30;;
1759;SDS011;877;46.266;20.062;2022-10-16T15:39:29;13.43;;;6.63;;
1759;SDS011;877;46.266;20.062;2022-10-16T15:41:55;8.67;;;6.60;;
1759;SDS011;877;46.266;20.062;2022-10-16T15:44:22;7.47;;;5.70;;
1759;SDS011;877;46.266;20.062;2022-10-16T15:46:52;13.27;;;5.00;;
1759;SDS011;877;46.266;20.062;2022-10-16T15:49:26;8.33;;;5.47;;
1759;SDS011;877;46.266;20.062;2022-10-16T15:51:52;8.87;;;6.20;;
1759;SDS011;877;46.266;20.062;2022-10-16T15:54:35;10.30;;;7.33;;
1759;SDS011;877;46.266;20.062;2022-10-16T15:59:33;14.90;;;9.90;;
1759;SDS011;877;46.266;20.062;2022-10-16T16:02:02;13.33;;;7.80;;
1759;SDS011;877;46.266;20.062;2022-10-16T16:04:40;12.30;;;7.00;;
1759;SDS011;877;46.266;20.062;2022-10-16T16:09:43;8.63;;;5.77;;
1759;SDS011;877;46.266;20.062;2022-10-16T16:12:16;7.97;;;5.47;;
1759;SDS011;877;46.266;20.062;2022-10-16T16:14:43;10.97;;;8.50;;
1759;SDS011;877;46.266;20.062;2022-10-16T16:17:19;17.13;;;12.80;;
1759;SDS011;877;46.266;20.062;2022-10-16T16:19:46;22.67;;;18.23;;
1759;SDS011;877;46.266;20.062;2022-10-16T16:22:22;24.43;;;19.90;;
1759;SDS011;877;46.266;20.062;2022-10-16T16:27:19;17.80;;;15.30;;
1759;SDS011;877;46.266;20.062;2022-10-16T16:32:24;18.00;;;15.20;;
1759;SDS011;877;46.266;20.062;2022-10-16T16:35:01;18.63;;;14.63;;
1759;SDS011;877;46.266;20.062;2022-10-16T16:37:44;17.67;;;14.17;;
1759;SDS011;877;46.266;20.062;2022-10-16T16:40:10;16.00;;;14.30;;
1759;SDS011;877;46.266;20.062;2022-10-16T16:42:44;17.93;;;13.67;;
1759;SDS011;877;46.266;20.062;2022-10-16T16:45:13;16.80;;;13.47;;
1759;SDS011;877;46.266;20.062;2022-10-16T16:47:41;11.97;;;10.70;;
1759;SDS011;877;46.266;20.062;2022-10-16T16:50:07;11.87;;;6.83;;
1759;SDS011;877;46.266;20.062;2022-10-16T16:52:34;13.77;;;8.90;;
1759;SDS011;877;46.266;20.062;2022-10-16T16:55:01;17.83;;;10.87;;
1759;SDS011;877;46.266;20.062;2022-10-16T17:00:12;11.00;;;8.20;;
1759;SDS011;877;46.266;20.062;2022-10-16T17:02:40;11.73;;;9.60;;
1759;SDS011;877;46.266;20.062;2022-10-16T17:05:08;13.17;;;9.00;;
1759;SDS011;877;46.266;20.062;2022-10-16T17:07:34;11.37;;;6.97;;
1759;SDS011;877;46.266;20.062;2022-10-16T17:10:08;8.60;;;7.23;;
1759;SDS011;877;46.266;20.062;2022-10-16T17:12:40;9.13;;;6.97;;
1759;SDS011;877;46.266;20.062;2022-10-16T17:15:12;12.10;;;6.67;;
1759;SDS011;877;46.266;20.062;2022-10-16T17:17:53;9.87;;;6.80;;
1759;SDS011;877;46.266;20.062;2022-10-16T17:25:44;10.37;;;7.00;;
1759;SDS011;877;46.266;20.062;2022-10-16T17:28:16;11.33;;;8.00;;
1759;SDS011;877;46.266;20.062;2022-10-16T17:33:45;10.63;;;8.00;;
1759;SDS011;877;46.266;20.062;2022-10-16T17:36:19;14.67;;;8.40;;
1759;SDS011;877;46.266;20.062;2022-10-16T17:41:33;13.60;;;8.27;;
1759;SDS011;877;46.266;20.062;2022-10-16T17:44:02;13.90;;;8.50;;
1759;SDS011;877;46.266;20.062;2022-10-16T17:46:30;9.03;;;6.80;;
1759;SDS011;877;46.266;20.062;2022-10-16T17:54:15;10.80;;;7.50;;
1759;SDS011;877;46.266;20.062;2022-10-16T17:56:47;11.53;;;7.60;;
1759;SDS011;877;46.266;20.062;2022-10-16T17:59:19;10.73;;;7.37;;
1759;SDS011;877;46.266;20.062;2022-10-16T18:01:49;9.80;;;6.67;;
1759;SDS011;877;46.266;20.062;2022-10-16T18:04:15;12.90;;;6.90;;
1759;SDS011;877;46.266;20.062;2022-10-16T18:09:16;9.70;;;6.40;;
1759;SDS011;877;46.266;20.062;2022-10-16T18:11:42;10.37;;;6.70;;
1759;SDS011;877;46.266;20.062;2022-10-16T18:14:14;10.53;;;7.00;;
1759;SDS011;877;46.266;20.062;2022-10-16T18:16:47;12.87;;;8.20;;
1759;SDS011;877;46.266;20.062;2022-10-16T18:19:22;10.20;;;7.10;;
1759;SDS011;877;46.266;20.062;2022-10-16T18:21:50;8.47;;;6.00;;
1759;SDS011;877;46.266;20.062;2022-10-16T18:26:57;12.00;;;7.53;;
1759;SDS011;877;46.266;20.062;2022-10-16T18:29:25;11.27;;;7.93;;
1759;SDS011;877;46.266;20.062;2022-10-16T18:31:53;11.80;;;9.30;;
1759;SDS011;877;46.266;20.062;2022-10-16T18:34:19;12.87;;;10.50;;
1759;SDS011;877;46.266;20.062;2022-10-16T18:36:47;12.10;;;9.50;;
1759;SDS011;877;46.266;20.062;2022-10-16T18:39:23;15.37;;;9.73;;
1759;SDS011;877;46.266;20.062;2022-10-16T18:41:50;13.83;;;10.20;;
1759;SDS011;877;46.266;20.062;2022-10-16T18:44:19;17.47;;;9.27;;
1759;SDS011;877;46.266;20.062;2022-10-16T18:46:46;11.93;;;8.87;;
1759;SDS011;877;46.266;20.062;2022-10-16T18:49:14;15.93;;;10.30;;
1759;SDS011;877;46.266;20.062;2022-10-16T18:56:42;14.67;;;9.63;;
1759;SDS011;877;46.266;20.062;2022-10-16T18:59:10;12.73;;;9.50;;
1759;SDS011;877;46.266;20.062;2022-10-16T19:01:37;14.07;;;9.77;;
1759;SDS011;877;46.266;20.062;2022-10-16T19:04:05;13.60;;;9.83;;
1759;SDS011;877;46.266;20.062;2022-10-16T19:06:35;16.80;;;9.83;;
1759;SDS011;877;46.266;20.062;2022-10-16T19:09:04;11.30;;;8.63;;
1759;SDS011;877;46.266;20.062;2022-10-16T19:11:31;17.47;;;9.20;;
1759;SDS011;877;46.266;20.062;2022-10-16T19:13:59;17.03;;;9.40;;
1759;SDS011;877;46.266;20.062;2022-10-16T19:16:32;15.63;;;9.10;;
1759;SDS011;877;46.266;20.062;2022-10-16T19:19:05;11.20;;;9.27;;
1759;SDS011;877;46.266;20.062;2022-10-16T19:21:44;15.10;;;9.00;;
1759;SDS011;877;46.266;20.062;2022-10-16T19:24:14;16.80;;;10.40;;
1759;SDS011;877;46.266;20.062;2022-10-16T19:26:40;11.53;;;9.53;;
1759;SDS011;877;46.266;20.062;2022-10-16T19:29:09;13.80;;;10.40;;
1759;SDS011;877;46.266;20.062;2022-10-16T19:31:37;17.93;;;9.93;;
1759;SDS011;877;46.266;20.062;2022-10-16T19:36:52;15.90;;;13.40;;
1759;SDS011;877;46.266;20.062;2022-10-16T19:39:20;14.30;;;10.33;;
1759;SDS011;877;46.266;20.062;2022-10-16T19:41:50;12.93;;;9.53;;
1759;SDS011;877;46.266;20.062;2022-10-16T19:46:46;12.53;;;9.30;;
1759;SDS011;877;46.266;20.062;2022-10-16T19:49:22;12.07;;;9.20;;
1759;SDS011;877;46.266;20.062;2022-10-16T19:51:49;15.83;;;9.67;;
1759;SDS011;877;46.266;20.062;2022-10-16T19:54:18;12.70;;;9.60;;
1759;SDS011;877;46.266;20.062;2022-10-16T19:56:45;11.63;;;8.53;;
1759;SDS011;877;46.266;20.062;2022-10-16T19:59:11;17.57;;;10.10;;
1759;SDS011;877;46.266;20.062;2022-10-16T20:04:16;15.20;;;9.50;;
1759;SDS011;877;46.266;20.062;2022-10-16T20:06:44;19.00;;;9.90;;
1759;SDS011;877;46.266;20.062;2022-10-16T20:09:11;12.50;;;9.67;;
1759;SDS011;877;46.266;20.062;2022-10-16T20:11:37;13.17;;;8.70;;
1759;SDS011;877;46.266;20.062;2022-10-16T20:14:05;15.97;;;9.47;;
1759;SDS011;877;46.266;20.062;2022-10-16T20:16:33;14.43;;;10.40;;
1759;SDS011;877;46.266;20.062;2022-10-16T20:19:08;14.87;;;10.03;;
1759;SDS011;877;46.266;20.062;2022-10-16T20:21:35;15.17;;;9.83;;
1759;SDS011;877;46.266;20.062;2022-10-16T20:24:07;12.80;;;8.67;;
1759;SDS011;877;46.266;20.062;2022-10-16T20:26:33;13.50;;;10.03;;
1759;SDS011;877;46.266;20.062;2022-10-16T20:29:01;13.70;;;10.33;;
1759;SDS011;877;46.266;20.062;2022-10-16T20:31:34;13.73;;;9.57;;
1759;SDS011;877;46.266;20.062;2022-10-16T20:34:03;15.90;;;9.40;;
1759;SDS011;877;46.266;20.062;2022-10-16T20:36:29;14.50;;;9.60;;
1759;SDS011;877;46.266;20.062;2022-10-16T20:38:59;15.20;;;10.53;;
1759;SDS011;877;46.266;20.062;2022-10-16T20:41:26;13.13;;;8.80;;
1759;SDS011;877;46.266;20.062;2022-10-16T20:43:52;14.63;;;10.83;;
1759;SDS011;877;46.266;20.062;2022-10-16T20:46:23;15.60;;;10.00;;
1759;SDS011;877;46.266;20.062;2022-10-16T20:48:50;12.47;;;9.63;;
1759;SDS011;877;46.266;20.062;2022-10-16T20:54:02;14.03;;;10.07;;
1759;SDS011;877;46.266;20.062;2022-10-16T20:56:34;14.00;;;9.27;;
1759;SDS011;877;46.266;20.062;2022-10-16T20:59:02;17.33;;;11.03;;
1759;SDS011;877;46.266;20.062;2022-10-16T21:04:18;15.17;;;10.83;;
1759;SDS011;877;46.266;20.062;2022-10-16T21:06:46;15.00;;;9.53;;
1759;SDS011;877;46.266;20.062;2022-10-16T21:09:26;13.90;;;9.70;;
1759;SDS011;877;46.266;20.062;2022-10-16T21:14:29;17.23;;;10.00;;
1759;SDS011;877;46.266;20.062;2022-10-16T21:19:29;14.27;;;9.37;;
1759;SDS011;877;46.266;20.062;2022-10-16T21:24:25;16.20;;;10.03;;
1759;SDS011;877;46.266;20.062;2022-10-16T21:26:51;15.63;;;10.17;;
1759;SDS011;877;46.266;20.062;2022-10-16T21:29:18;14.20;;;9.83;;
1759;SDS011;877;46.266;20.062;2022-10-16T21:31:48;14.63;;;10.07;;
1759;SDS011;877;46.266;20.062;2022-10-16T21:34:15;14.30;;;10.60;;
1759;SDS011;877;46.266;20.062;2022-10-16T21:36:43;18.83;;;11.43;;
1759;SDS011;877;46.266;20.062;2022-10-16T21:39:19;16.87;;;11.80;;
1759;SDS011;877;46.266;20.062;2022-10-16T21:41:46;17.80;;;13.53;;
1759;SDS011;877;46.266;20.062;2022-10-16T21:44:15;15.27;;;11.10;;
1759;SDS011;877;46.266;20.062;2022-10-16T21:46:47;15.90;;;12.37;;
1759;SDS011;877;46.266;20.062;2022-10-16T21:49:18;15.33;;;10.67;;
1759;SDS011;877;46.266;20.062;2022-10-16T21:51:46;15.40;;;11.87;;
1759;SDS011;877;46.266;20.062;2022-10-16T21:54:20;17.40;;;12.50;;
1759;SDS011;877;46.266;20.062;2022-10-16T21:56:55;17.43;;;13.20;;
1759;SDS011;877;46.266;20.062;2022-10-16T21:59:28;19.87;;;12.97;;
1759;SDS011;877;46.266;20.062;2022-10-16T22:01:55;19.73;;;12.90;;